createdAt,value
2018-05-04T00:02:00.012Z,13.90
2018-05-04T00:04:26.852Z,14.00
2018-05-04T00:06:53.712Z,13.90
2018-05-04T00:09:20.598Z,14.00
2018-05-04T00:11:47.506Z,13.90
2018-05-04T00:14:14.451Z,13.80
2018-05-04T00:16:41.288Z,13.80
2018-05-04T00:19:08.220Z,13.90
2018-05-04T00:21:35.074Z,13.90
2018-05-04T00:24:01.918Z,13.90
2018-05-04T00:26:28.879Z,13.80
2018-05-04T00:28:55.751Z,13.80
2018-05-04T00:31:22.589Z,13.80
2018-05-04T00:33:49.455Z,13.80
2018-05-04T00:36:16.297Z,13.60
2018-05-04T00:38:43.164Z,13.60
2018-05-04T00:41:09.999Z,13.50
2018-05-04T00:43:37.229Z,13.50
2018-05-04T00:46:04.151Z,13.50
2018-05-04T00:48:31.004Z,13.50
2018-05-04T00:50:57.882Z,13.50
2018-05-04T00:53:24.751Z,13.40
2018-05-04T00:55:51.746Z,13.40
2018-05-04T00:58:18.526Z,13.30
2018-05-04T01:00:45.508Z,13.30
2018-05-04T01:03:12.447Z,13.20
2018-05-04T01:05:39.322Z,13.20
2018-05-04T01:08:06.186Z,13.20
2018-05-04T01:10:33.131Z,13.20
2018-05-04T01:12:59.967Z,13.20
2018-05-04T01:15:26.935Z,13.20
2018-05-04T01:17:53.789Z,13.20
2018-05-04T01:20:20.637Z,13.30
2018-05-04T01:22:47.923Z,13.30
2018-05-04T01:25:14.787Z,13.30
2018-05-04T01:27:41.631Z,13.30
2018-05-04T01:30:08.482Z,13.20
2018-05-04T01:32:35.389Z,13.20
2018-05-04T01:35:02.231Z,13.30
2018-05-04T01:37:29.092Z,13.30
2018-05-04T01:39:55.968Z,13.40
2018-05-04T01:42:22.818Z,13.40
2018-05-04T01:44:49.743Z,13.50
2018-05-04T01:47:16.593Z,13.40
2018-05-04T01:49:43.448Z,13.30
2018-05-04T01:52:10.307Z,13.20
2018-05-04T01:54:37.183Z,13.20
2018-05-04T01:57:04.030Z,13.20
2018-05-04T01:59:30.902Z,13.10
2018-05-04T02:01:57.781Z,13.10
2018-05-04T02:04:24.626Z,13.00
2018-05-04T02:06:51.523Z,12.90
2018-05-04T02:09:18.823Z,13.00
2018-05-04T02:11:45.688Z,13.00
2018-05-04T02:14:12.530Z,13.00
2018-05-04T02:16:39.410Z,12.90
2018-05-04T02:19:06.272Z,12.90
2018-05-04T02:21:33.131Z,13.00
2018-05-04T02:24:00.024Z,13.00
2018-05-04T02:26:26.891Z,13.00
2018-05-04T02:28:53.745Z,13.00
2018-05-04T02:31:20.746Z,13.00
2018-05-04T02:33:47.595Z,13.00
2018-05-04T02:36:14.458Z,13.10
2018-05-04T02:38:41.326Z,13.10
2018-05-04T02:41:08.159Z,13.00
2018-05-04T02:43:35.003Z,13.00
2018-05-04T02:46:02.270Z,12.80
2018-05-04T02:48:29.706Z,12.60
2018-05-04T02:50:56.674Z,12.60
2018-05-04T02:53:23.581Z,12.50
2018-05-04T02:55:50.446Z,12.50
2018-05-04T02:58:17.321Z,12.50
2018-05-04T03:00:44.199Z,12.40
2018-05-04T03:03:12.075Z,12.40
2018-05-04T03:05:39.015Z,12.40
2018-05-04T03:08:05.886Z,12.40
2018-05-04T03:10:32.770Z,12.40
2018-05-04T03:12:59.666Z,12.30
2018-05-04T03:15:26.528Z,12.40
2018-05-04T03:17:53.583Z,12.40
2018-05-04T03:20:20.452Z,12.40
2018-05-04T03:22:47.307Z,12.30
2018-05-04T03:25:14.180Z,12.30
2018-05-04T03:27:41.020Z,12.30
2018-05-04T03:30:07.896Z,12.30
2018-05-04T03:32:34.763Z,12.20
2018-05-04T03:35:01.606Z,12.20
2018-05-04T03:37:28.727Z,12.20
2018-05-04T03:39:55.790Z,12.10
2018-05-04T03:42:23.026Z,12.00
2018-05-04T03:44:49.938Z,12.00
2018-05-04T03:47:16.902Z,12.00
2018-05-04T03:49:43.740Z,11.90
2018-05-04T03:52:10.685Z,11.80
2018-05-04T03:54:37.855Z,11.80
2018-05-04T03:57:16.926Z,11.80
2018-05-04T03:59:55.811Z,11.80
2018-05-04T04:02:34.738Z,11.80
2018-05-04T04:05:01.537Z,11.80
2018-05-04T04:07:28.842Z,11.70
2018-05-04T04:09:55.737Z,11.60
2018-05-04T04:12:22.603Z,11.50
2018-05-04T04:14:49.855Z,11.40
2018-05-04T04:17:16.758Z,11.50
2018-05-04T04:19:43.640Z,11.40
2018-05-04T04:22:10.471Z,11.40
2018-05-04T04:24:37.311Z,11.50
2018-05-04T04:27:05.394Z,11.40
2018-05-04T04:29:32.635Z,11.40
2018-05-04T04:31:59.490Z,11.40
2018-05-04T04:34:26.414Z,11.30
2018-05-04T04:36:53.257Z,11.20
2018-05-04T04:39:20.211Z,11.20
2018-05-04T04:41:47.074Z,11.20
2018-05-04T04:44:13.995Z,11.40
2018-05-04T04:46:40.835Z,11.60
2018-05-04T04:49:07.823Z,11.50
2018-05-04T04:51:34.874Z,11.60
2018-05-04T04:54:01.772Z,11.70
2018-05-04T04:56:28.616Z,11.80
2018-05-04T04:58:55.491Z,11.80
2018-05-04T05:01:22.442Z,11.80
2018-05-04T05:03:49.286Z,11.90
2018-05-04T05:06:16.572Z,11.90
2018-05-04T05:08:43.434Z,11.90
2018-05-04T05:11:10.287Z,11.90
2018-05-04T05:13:37.246Z,11.90
2018-05-04T05:16:04.086Z,12.00
2018-05-04T05:18:30.935Z,12.10
2018-05-04T05:20:58.199Z,12.30
2018-05-04T05:23:25.441Z,12.40
2018-05-04T05:25:52.358Z,12.40
2018-05-04T05:28:19.226Z,12.40
2018-05-04T05:30:46.073Z,12.50
2018-05-04T05:33:12.916Z,12.60
2018-05-04T05:35:39.820Z,12.70
2018-05-04T05:38:06.624Z,12.70
2018-05-04T05:40:33.477Z,12.80
2018-05-04T05:43:00.346Z,13.00
2018-05-04T05:45:27.283Z,13.10
2018-05-04T05:47:54.516Z,13.30
2018-05-04T05:50:21.388Z,13.30
2018-05-04T05:52:48.232Z,13.40
2018-05-04T05:55:15.232Z,13.50
2018-05-04T05:57:42.516Z,13.70
2018-05-04T06:00:09.356Z,13.80
2018-05-04T06:02:36.195Z,13.70
2018-05-04T06:05:03.500Z,13.80
2018-05-04T06:07:30.548Z,13.80
2018-05-04T06:09:57.481Z,13.80
2018-05-04T06:12:24.729Z,13.90
2018-05-04T06:14:51.586Z,13.90
2018-05-04T06:17:18.501Z,13.90
2018-05-04T06:19:45.329Z,14.00
2018-05-04T06:22:12.186Z,14.20
2018-05-04T06:24:39.453Z,14.50
2018-05-04T06:27:06.305Z,14.50
2018-05-04T06:29:33.594Z,14.50
2018-05-04T06:32:00.499Z,14.50
2018-05-04T06:34:27.342Z,14.60
2018-05-04T06:36:54.308Z,14.90
2018-05-04T06:39:21.360Z,15.00
2018-05-04T06:41:48.294Z,15.10
2018-05-04T06:44:15.244Z,15.30
2018-05-04T06:46:42.087Z,15.40
2018-05-04T06:49:08.968Z,15.40
2018-05-04T06:51:35.817Z,15.40
2018-05-04T06:54:02.670Z,15.40
2018-05-04T06:56:29.647Z,15.30
2018-05-04T06:58:56.681Z,15.10
2018-05-04T07:01:23.537Z,15.10
2018-05-04T07:03:50.846Z,15.30
2018-05-04T07:06:17.688Z,15.30
2018-05-04T07:08:44.526Z,15.40
2018-05-04T07:11:11.404Z,15.50
2018-05-04T07:13:38.239Z,15.50
2018-05-04T07:16:05.089Z,15.70
2018-05-04T07:18:32.409Z,15.80
2018-05-04T07:20:59.267Z,15.70
2018-05-04T07:23:26.120Z,15.70
2018-05-04T07:25:53.055Z,15.70
2018-05-04T07:28:19.923Z,15.80
2018-05-04T07:30:46.877Z,15.70
2018-05-04T07:33:13.756Z,15.80
2018-05-04T07:35:40.690Z,15.90
2018-05-04T07:38:07.534Z,16.00
2018-05-04T07:40:34.402Z,16.20
2018-05-04T07:43:01.303Z,16.40
2018-05-04T07:45:28.142Z,16.50
2018-05-04T07:47:55.161Z,16.50
2018-05-04T07:50:22.091Z,16.70
2018-05-04T07:52:49.366Z,16.80
2018-05-04T07:55:16.687Z,16.80
2018-05-04T07:57:43.534Z,16.80
2018-05-04T08:00:10.402Z,16.80
2018-05-04T08:02:37.241Z,16.70
2018-05-04T08:05:04.106Z,16.70
2018-05-04T08:07:30.980Z,16.90
2018-05-04T08:09:57.881Z,17.00
2018-05-04T08:12:25.161Z,17.60
2018-05-04T08:14:52.402Z,17.80
2018-05-04T08:17:19.302Z,17.80
2018-05-04T08:19:46.164Z,17.70
2018-05-04T08:22:13.108Z,17.50
2018-05-04T08:24:40.055Z,17.60
2018-05-04T08:27:06.893Z,17.80
2018-05-04T08:29:34.156Z,17.80
2018-05-04T08:32:01.095Z,17.80
2018-05-04T08:34:28.026Z,17.80
2018-05-04T08:36:54.874Z,17.70
2018-05-04T08:39:21.829Z,17.70
2018-05-04T08:41:48.663Z,17.80
2018-05-04T08:44:15.948Z,18.20
2018-05-04T08:46:43.252Z,18.20
2018-05-04T08:49:10.513Z,18.20
2018-05-04T08:51:37.450Z,18.20
2018-05-04T08:54:04.295Z,18.20
2018-05-04T08:56:31.184Z,18.30
2018-05-04T08:58:58.004Z,18.40
2018-05-04T09:01:24.869Z,18.60
2018-05-04T09:03:51.731Z,18.80
2018-05-04T09:06:18.580Z,18.90
2018-05-04T09:08:45.501Z,18.70
2018-05-04T09:11:12.351Z,18.80
2018-05-04T09:13:39.264Z,18.90
2018-05-04T09:16:06.139Z,18.80
2018-05-04T09:18:33.079Z,18.80
2018-05-04T09:20:59.928Z,18.90
2018-05-04T09:23:26.815Z,19.00
2018-05-04T09:25:53.674Z,19.10
2018-05-04T09:28:20.522Z,19.30
2018-05-04T09:30:47.378Z,19.30
2018-05-04T09:33:14.365Z,19.30
2018-05-04T09:35:41.276Z,19.40
2018-05-04T09:38:08.132Z,19.60
2018-05-04T09:40:35.117Z,19.60
2018-05-04T09:43:01.947Z,19.80
2018-05-04T09:45:28.828Z,20.10
2018-05-04T09:47:55.669Z,20.10
2018-05-04T09:50:22.591Z,20.10
2018-05-04T09:52:49.912Z,20.00
2018-05-04T09:55:17.376Z,20.00
2018-05-04T09:57:44.247Z,20.20
2018-05-04T10:00:11.105Z,20.20
2018-05-04T10:02:37.952Z,20.10
2018-05-04T10:05:04.818Z,20.20
2018-05-04T10:07:31.691Z,20.00
2018-05-04T10:09:58.619Z,20.10
2018-05-04T10:12:25.450Z,20.30
2018-05-04T10:14:52.519Z,20.50
2018-05-04T10:17:19.582Z,20.70
2018-05-04T10:19:46.857Z,20.70
2018-05-04T10:22:13.823Z,20.70
2018-05-04T10:24:40.683Z,20.50
2018-05-04T10:27:07.537Z,20.30
2018-05-04T10:29:34.505Z,20.40
2018-05-04T10:32:01.408Z,20.50
2018-05-04T10:34:28.265Z,20.70
2018-05-04T10:36:55.527Z,20.90
2018-05-04T10:39:22.828Z,20.90
2018-05-04T10:41:50.056Z,21.20
2018-05-04T10:44:16.950Z,21.20
2018-05-04T10:46:43.818Z,21.40
2018-05-04T10:49:10.716Z,21.60
2018-05-04T10:51:37.678Z,21.70
2018-05-04T10:54:04.883Z,21.70
2018-05-04T10:56:31.814Z,21.70
2018-05-04T10:58:58.739Z,21.60
2018-05-04T11:01:25.598Z,21.60
2018-05-04T11:03:52.438Z,21.50
2018-05-04T11:06:19.403Z,21.60
2018-05-04T11:08:46.222Z,21.60
2018-05-04T11:11:13.488Z,21.60
2018-05-04T11:13:40.759Z,21.60
2018-05-04T11:16:08.050Z,21.70
2018-05-04T11:18:34.906Z,21.70
2018-05-04T11:21:01.760Z,21.90
2018-05-04T11:23:28.666Z,22.10
2018-05-04T11:25:55.606Z,22.00
2018-05-04T11:28:22.535Z,22.00
2018-05-04T11:30:49.459Z,21.90
2018-05-04T11:33:16.238Z,21.90
2018-05-04T11:35:43.215Z,21.80
2018-05-04T11:38:10.056Z,21.80
2018-05-04T11:40:37.017Z,21.50
2018-05-04T11:43:04.230Z,21.70
2018-05-04T11:45:31.145Z,21.70
2018-05-04T11:47:57.987Z,21.80
2018-05-04T11:50:24.896Z,21.80
2018-05-04T11:52:51.829Z,21.90
2018-05-04T11:55:18.774Z,22.10
2018-05-04T11:57:45.645Z,22.20
2018-05-04T12:00:12.502Z,22.00
2018-05-04T12:02:39.467Z,21.70
2018-05-04T12:05:06.322Z,21.60
2018-05-04T12:07:33.172Z,21.80
2018-05-04T12:10:00.060Z,21.90
2018-05-04T12:12:27.006Z,21.90
2018-05-04T12:14:53.845Z,22.10
2018-05-04T12:17:20.842Z,22.30
2018-05-04T12:19:47.713Z,22.10
2018-05-04T12:22:14.576Z,22.20
2018-05-04T12:24:41.392Z,22.10
2018-05-04T12:27:08.322Z,22.10
2018-05-04T12:29:35.179Z,22.30
2018-05-04T12:32:02.055Z,22.40
2018-05-04T12:34:29.019Z,22.70
2018-05-04T12:36:55.878Z,22.50
2018-05-04T12:39:22.738Z,22.30
2018-05-04T12:41:49.694Z,22.20
2018-05-04T12:44:16.573Z,21.90
2018-05-04T12:46:43.385Z,21.90
2018-05-04T12:49:10.263Z,21.70
2018-05-04T12:51:37.196Z,21.80
2018-05-04T12:54:04.087Z,21.90
2018-05-04T12:56:30.893Z,21.90
2018-05-04T12:58:58.186Z,22.00
2018-05-04T13:01:25.137Z,22.00
2018-05-04T13:03:52.100Z,22.20
2018-05-04T13:06:18.979Z,22.30
2018-05-04T13:08:46.022Z,22.40
2018-05-04T13:11:13.347Z,22.60
2018-05-04T13:13:40.667Z,22.60
2018-05-04T13:16:07.627Z,22.60
2018-05-04T13:18:34.472Z,22.60
2018-05-04T13:21:01.356Z,22.50
2018-05-04T13:23:28.254Z,22.60
2018-05-04T13:25:55.511Z,22.70
2018-05-04T13:28:22.350Z,22.70
2018-05-04T13:30:49.195Z,22.80
2018-05-04T13:33:16.059Z,22.90
2018-05-04T13:35:42.983Z,23.00
2018-05-04T13:38:09.834Z,23.10
2018-05-04T13:40:36.790Z,23.10
2018-05-04T13:43:03.658Z,23.20
2018-05-04T13:45:30.578Z,23.30
2018-05-04T13:47:57.473Z,23.30
2018-05-04T13:50:24.498Z,23.40
2018-05-04T13:52:51.328Z,23.20
2018-05-04T13:55:18.219Z,22.90
2018-05-04T13:57:45.503Z,22.70
2018-05-04T14:00:12.347Z,22.70
2018-05-04T14:02:39.643Z,22.60
2018-05-04T14:05:06.587Z,22.60
2018-05-04T14:07:33.449Z,22.60
2018-05-04T14:10:00.340Z,22.60
2018-05-04T14:12:27.291Z,22.50
2018-05-04T14:14:54.155Z,22.70
2018-05-04T14:17:21.033Z,22.70
2018-05-04T14:19:47.892Z,22.60
2018-05-04T14:22:14.735Z,22.50
2018-05-04T14:24:41.650Z,22.60
2018-05-04T14:27:08.558Z,22.60
2018-05-04T14:29:35.382Z,22.60
2018-05-04T14:32:02.410Z,22.60
2018-05-04T14:34:29.671Z,22.70
2018-05-04T14:36:56.915Z,22.80
2018-05-04T14:39:23.763Z,22.80
2018-05-04T14:41:50.624Z,23.00
2018-05-04T14:44:17.548Z,23.10
2018-05-04T14:46:44.486Z,23.10
2018-05-04T14:49:11.363Z,23.10
2018-05-04T14:51:38.348Z,23.00
2018-05-04T14:54:05.199Z,22.80
2018-05-04T14:56:32.194Z,22.80
2018-05-04T14:58:59.425Z,22.50
2018-05-04T15:01:26.387Z,22.50
2018-05-04T15:03:53.242Z,22.40
2018-05-04T15:06:20.158Z,22.50
2018-05-04T15:08:47.015Z,22.50
2018-05-04T15:11:14.264Z,22.60
2018-05-04T15:13:41.500Z,22.70
2018-05-04T15:16:08.614Z,22.70
2018-05-04T15:18:35.383Z,22.90
2018-05-04T15:21:02.285Z,23.20
2018-05-04T15:23:29.170Z,23.50
2018-05-04T15:25:56.035Z,23.50
2018-05-04T15:28:22.889Z,23.50
2018-05-04T15:30:49.753Z,23.60
2018-05-04T15:33:16.647Z,23.70
2018-05-04T15:35:43.512Z,23.70
2018-05-04T15:38:10.483Z,23.70
2018-05-04T15:40:37.462Z,23.70
2018-05-04T15:43:04.271Z,23.50
2018-05-04T15:45:31.257Z,23.40
2018-05-04T15:47:58.114Z,23.00
2018-05-04T15:50:25.587Z,23.00
2018-05-04T15:52:53.432Z,23.20
2018-05-04T15:55:20.286Z,23.10
2018-05-04T15:57:47.142Z,23.10
2018-05-04T16:00:14.092Z,23.00
2018-05-04T16:02:40.939Z,23.00
2018-05-04T16:05:07.823Z,23.00
2018-05-04T16:07:34.703Z,23.10
2018-05-04T16:10:01.548Z,22.90
2018-05-04T16:12:28.462Z,23.00
2018-05-04T16:14:55.757Z,23.10
2018-05-04T16:17:22.711Z,23.10
2018-05-04T16:19:49.641Z,23.30
2018-05-04T16:22:16.535Z,23.70
2018-05-04T16:24:43.310Z,24.20
2018-05-04T16:27:10.206Z,25.00
2018-05-04T16:29:37.455Z,26.30
2018-05-04T16:32:04.375Z,26.30
2018-05-04T16:34:31.230Z,27.30
2018-05-04T16:36:58.128Z,28.00
2018-05-04T16:39:25.006Z,28.30
2018-05-04T16:41:51.848Z,28.50
2018-05-04T16:44:18.752Z,28.00
2018-05-04T16:46:45.717Z,27.80
2018-05-04T16:49:12.559Z,26.70
2018-05-04T16:51:39.517Z,26.20
2018-05-04T16:54:06.377Z,26.30
2018-05-04T16:56:33.239Z,26.10
2018-05-04T16:59:00.101Z,26.10
2018-05-04T17:01:26.948Z,26.20
2018-05-04T17:03:53.818Z,26.40
2018-05-04T17:06:20.764Z,26.50
2018-05-04T17:08:47.723Z,26.50
2018-05-04T17:11:14.619Z,25.90
2018-05-04T17:13:41.460Z,25.70
2018-05-04T17:16:08.416Z,25.80
2018-05-04T17:18:35.268Z,25.90
2018-05-04T17:21:02.146Z,26.40
2018-05-04T17:23:29.102Z,26.90
2018-05-04T17:25:55.967Z,26.90
2018-05-04T17:28:22.884Z,26.60
2018-05-04T17:30:49.730Z,26.30
2018-05-04T17:33:16.614Z,25.90
2018-05-04T17:35:43.454Z,26.20
2018-05-04T17:38:10.338Z,26.50
2018-05-04T17:40:37.175Z,26.40
2018-05-04T17:43:04.038Z,26.30
2018-05-04T17:45:30.985Z,26.10
2018-05-04T17:47:57.894Z,26.00
2018-05-04T17:50:24.817Z,25.80
2018-05-04T17:52:51.676Z,25.70
2018-05-04T17:55:18.533Z,25.90
2018-05-04T17:57:45.390Z,26.10
2018-05-04T18:00:12.340Z,25.90
2018-05-04T18:02:39.255Z,25.30
2018-05-04T18:05:06.139Z,25.00
2018-05-04T18:07:33.396Z,24.40
2018-05-04T18:10:00.667Z,24.20
2018-05-04T18:12:27.599Z,24.20
2018-05-04T18:14:54.446Z,23.90
2018-05-04T18:17:21.331Z,23.70
2018-05-04T18:19:48.154Z,23.20
2018-05-04T18:22:15.021Z,22.60
2018-05-04T18:24:41.895Z,22.40
2018-05-04T18:27:09.171Z,22.30
2018-05-04T18:29:36.399Z,22.00
2018-05-04T18:32:03.315Z,22.00
2018-05-04T18:34:30.169Z,21.60
2018-05-04T18:36:57.041Z,21.40
2018-05-04T18:39:23.896Z,21.10
2018-05-04T18:41:50.762Z,20.90
2018-05-04T18:44:17.709Z,20.70
2018-05-04T18:46:44.614Z,20.60
2018-05-04T18:49:11.530Z,20.30
2018-05-04T18:51:38.380Z,20.20
2018-05-04T18:54:05.226Z,20.00
2018-05-04T18:56:32.073Z,19.90
2018-05-04T18:58:58.954Z,19.70
2018-05-04T19:01:25.817Z,19.60
2018-05-04T19:03:52.683Z,19.50
2018-05-04T19:06:19.539Z,19.30
2018-05-04T19:08:46.471Z,19.20
2018-05-04T19:11:13.696Z,19.00
2018-05-04T19:13:40.551Z,19.00
2018-05-04T19:16:07.461Z,19.00
2018-05-04T19:18:34.425Z,18.90
2018-05-04T19:21:01.284Z,18.90
2018-05-04T19:23:28.148Z,19.00
2018-05-04T19:25:54.989Z,18.80
2018-05-04T19:28:21.872Z,18.70
2018-05-04T19:30:48.706Z,18.70
2018-05-04T19:33:15.543Z,18.70
2018-05-04T19:35:42.474Z,18.70
2018-05-04T19:38:09.318Z,18.80
2018-05-04T19:40:36.184Z,18.80
2018-05-04T19:43:03.049Z,18.60
2018-05-04T19:45:29.871Z,18.50
2018-05-04T19:47:56.830Z,18.50
2018-05-04T19:50:23.769Z,18.60
2018-05-04T19:52:50.632Z,18.60
2018-05-04T19:55:17.473Z,18.60
2018-05-04T19:57:44.343Z,18.60
2018-05-04T20:00:11.183Z,18.60
2018-05-04T20:02:38.038Z,18.60
2018-05-04T20:05:04.879Z,18.50
2018-05-04T20:07:31.823Z,18.40
2018-05-04T20:09:59.065Z,18.20
2018-05-04T20:12:25.915Z,18.20
2018-05-04T20:14:52.774Z,18.20
2018-05-04T20:17:19.683Z,18.10
2018-05-04T20:19:46.552Z,18.10
2018-05-04T20:22:13.386Z,18.10
2018-05-04T20:24:40.252Z,18.00
2018-05-04T20:27:07.119Z,18.00
2018-05-04T20:29:33.985Z,17.90
2018-05-04T20:32:00.948Z,17.80
2018-05-04T20:34:27.903Z,17.70
2018-05-04T20:36:54.776Z,17.70
2018-05-04T20:39:21.625Z,17.70
2018-05-04T20:41:48.563Z,17.80
2018-05-04T20:44:15.500Z,17.70
2018-05-04T20:46:42.274Z,17.70
2018-05-04T20:49:09.130Z,17.70
2018-05-04T20:51:35.981Z,17.60
2018-05-04T20:54:02.849Z,17.60
2018-05-04T20:56:29.686Z,17.60
2018-05-04T20:58:56.604Z,17.70
2018-05-04T21:01:23.425Z,17.70
2018-05-04T21:03:50.274Z,17.50
2018-05-04T21:06:17.321Z,17.60
2018-05-04T21:08:44.100Z,17.60
2018-05-04T21:11:10.951Z,17.60
2018-05-04T21:13:37.802Z,17.60
2018-05-04T21:16:04.689Z,17.50
2018-05-04T21:18:31.553Z,17.50
2018-05-04T21:20:58.419Z,17.60
2018-05-04T21:23:25.539Z,17.70
2018-05-04T21:25:52.800Z,17.70
2018-05-04T21:28:19.667Z,17.70
2018-05-04T21:30:46.657Z,17.60
2018-05-04T21:33:13.546Z,17.60
2018-05-04T21:35:40.813Z,17.60
2018-05-04T21:38:08.051Z,17.50
2018-05-04T21:40:34.907Z,17.50
2018-05-04T21:43:01.757Z,17.40
2018-05-04T21:45:28.707Z,17.30
2018-05-04T21:47:55.545Z,17.20
2018-05-04T21:50:22.396Z,17.20
2018-05-04T21:52:49.243Z,17.10
2018-05-04T21:55:16.105Z,17.20
2018-05-04T21:57:42.953Z,17.20
2018-05-04T22:00:09.803Z,17.10
2018-05-04T22:02:36.672Z,17.10
2018-05-04T22:05:03.519Z,17.00
2018-05-04T22:07:30.800Z,16.80
2018-05-04T22:09:57.757Z,16.80
2018-05-04T22:12:24.716Z,16.80
2018-05-04T22:14:51.598Z,16.90
2018-05-04T22:17:18.443Z,16.90
2018-05-04T22:19:45.287Z,16.80
2018-05-04T22:22:12.142Z,16.80
2018-05-04T22:24:38.994Z,16.70
2018-05-04T22:27:05.834Z,16.70
2018-05-04T22:29:33.081Z,16.70
2018-05-04T22:31:59.973Z,16.70
2018-05-04T22:34:26.864Z,16.70
2018-05-04T22:36:53.698Z,16.70
2018-05-04T22:39:20.542Z,16.70
2018-05-04T22:41:47.407Z,16.50
2018-05-04T22:44:14.274Z,16.40
2018-05-04T22:46:41.135Z,16.30
2018-05-04T22:49:07.977Z,16.30
2018-05-04T22:51:35.131Z,16.20
2018-05-04T22:54:02.421Z,16.30
2018-05-04T22:56:29.436Z,16.30
2018-05-04T22:58:56.585Z,16.20
2018-05-04T23:01:23.472Z,16.20
2018-05-04T23:03:50.707Z,16.20
2018-05-04T23:06:17.555Z,16.20
2018-05-04T23:08:44.414Z,16.20
2018-05-04T23:11:11.336Z,16.20
2018-05-04T23:13:38.202Z,16.20
2018-05-04T23:16:05.058Z,16.20
2018-05-04T23:18:31.914Z,16.30
2018-05-04T23:20:58.893Z,16.30
2018-05-04T23:23:25.834Z,16.30
2018-05-04T23:25:52.688Z,16.30
2018-05-04T23:28:19.562Z,16.20
2018-05-04T23:30:46.499Z,16.10
2018-05-04T23:33:13.355Z,16.10
2018-05-04T23:35:40.207Z,16.20
2018-05-04T23:38:07.075Z,16.10
2018-05-04T23:40:33.952Z,15.90
2018-05-04T23:43:00.812Z,15.70
2018-05-04T23:45:27.762Z,15.70
2018-05-04T23:47:54.609Z,15.70
2018-05-04T23:50:21.462Z,15.50
2018-05-04T23:52:48.418Z,15.60
2018-05-04T23:55:15.264Z,15.60
2018-05-04T23:57:42.129Z,15.60
